Time;durP1;ratioP1;P1;durP2;ratioP2;P2;SDS_P1;SDS_P2;PMS_P1;PMS_P2;Temp;Humidity;BMP_temperature;BMP_pressure;BME280_temperature;BME280_humidity;BME280_pressure;Samples;Min_cycle;Max_cycle;Signal;HPM_P1;HPM_P2
2022/04/12 00:01:35;;;;;;;4.05;2.75;;;;;;;-144.47;100.00;61586.06;6183807;23;20005;-76
2022/04/12 00:04:02;;;;;;;4.20;2.75;;;;;;;-144.47;100.00;61586.06;6182728;23;20319;-76
2022/04/12 00:06:27;;;;;;;4.55;3.20;;;;;;;-144.47;100.00;61586.06;6183153;23;20354;-76
2022/04/12 00:08:53;;;;;;;4.47;3.20;;;;;;;-144.47;100.00;61586.06;6182750;23;20036;-76
2022/04/12 00:11:19;;;;;;;5.65;3.47;;;;;;;-144.47;100.00;61586.06;6182447;23;20013;-77
2022/04/12 00:13:46;;;;;;;5.30;3.65;;;;;;;-144.47;100.00;61586.06;6183203;23;20434;-75
2022/04/12 00:16:11;;;;;;;3.47;3.00;;;;;;;-144.47;100.00;61586.06;6182565;23;20028;-76
2022/04/12 00:21:21;;;;;;;4.97;3.20;;;;;;;-144.47;100.00;61586.06;6183380;23;20326;-76
2022/04/12 00:23:46;;;;;;;5.05;3.65;;;;;;;-144.47;100.00;61586.06;6181818;23;20016;-77
2022/04/12 00:26:13;;;;;;;5.88;3.10;;;;;;;-144.47;100.00;61586.06;6182213;23;20024;-76
2022/04/12 00:28:40;;;;;;;5.32;3.58;;;;;;;-144.47;100.00;61586.06;6182623;23;20082;-76
2022/04/12 00:31:07;;;;;;;4.22;3.17;;;;;;;-144.47;100.00;61586.06;6156412;23;20036;-77
2022/04/12 00:33:32;;;;;;;4.78;3.30;;;;;;;-144.47;100.00;61586.06;6182963;23;20438;-76
2022/04/12 00:36:00;;;;;;;5.25;3.22;;;;;;;-144.47;100.00;61586.06;6182615;23;20020;-76
2022/04/12 00:38:27;;;;;;;4.63;3.15;;;;;;;-144.47;100.00;61586.06;6183205;23;20008;-76
2022/04/12 00:40:56;;;;;;;4.75;3.33;;;;;;;-144.47;100.00;61586.06;6182300;23;20446;-75
2022/04/12 00:43:27;;;;;;;6.53;3.95;;;;;;;-144.47;100.00;61586.06;6156403;23;20013;-76
2022/04/12 00:45:52;;;;;;;4.03;3.60;;;;;;;-144.47;100.00;61586.06;6182539;23;20395;-75
2022/04/12 00:48:18;;;;;;;5.28;3.30;;;;;;;-144.47;100.00;61586.06;6182542;23;20044;-76
2022/04/12 00:50:44;;;;;;;5.15;3.85;;;;;;;-144.47;100.00;61586.06;6182885;23;20017;-77
2022/04/12 00:53:09;;;;;;;4.43;3.45;;;;;;;-144.47;100.00;61586.06;6182790;23;20233;-77
2022/04/12 00:55:35;;;;;;;6.43;3.55;;;;;;;-144.47;100.00;61586.06;6182690;23;20009;-76
2022/04/12 00:58:07;;;;;;;4.95;3.20;;;;;;;-144.47;100.00;61586.06;6179302;23;20017;-76
2022/04/12 01:00:36;;;;;;;5.55;3.40;;;;;;;-144.47;100.00;61586.06;6179653;23;20075;-76
2022/04/12 01:03:03;;;;;;;4.80;3.55;;;;;;;-144.47;100.00;61586.06;6153496;23;20032;-77
2022/04/12 01:05:28;;;;;;;3.35;3.00;;;;;;;-144.47;100.00;61586.06;6181776;23;20016;-77
2022/04/12 01:07:55;;;;;;;4.90;2.95;;;;;;;-144.47;100.00;61586.06;6182436;23;20397;-76
2022/04/12 01:10:20;;;;;;;3.33;2.80;;;;;;;-144.47;100.00;61586.06;6182484;23;20013;-76
2022/04/12 01:12:47;;;;;;;4.05;2.30;;;;;;;-144.47;100.00;61586.06;6182240;23;20020;-76
2022/04/12 01:15:31;;;;;;;2.72;2.33;;;;;;;-144.47;100.00;61586.06;6182334;23;20032;-76
2022/04/12 01:17:57;;;;;;;2.97;2.60;;;;;;;-144.47;100.00;61586.06;6182351;23;20086;-75
2022/04/12 01:20:24;;;;;;;4.53;2.85;;;;;;;-144.47;100.00;61586.06;6182614;23;20079;-76
2022/04/12 01:22:59;;;;;;;3.90;2.60;;;;;;;-144.47;100.00;61586.06;6182834;23;20009;-76
2022/04/12 01:25:24;;;;;;;5.55;2.55;;;;;;;-144.47;100.00;61586.06;6182514;23;20334;-76
2022/04/12 01:27:51;;;;;;;2.72;2.53;;;;;;;-144.47;100.00;61586.06;6181919;23;20055;-76
2022/04/12 01:30:16;;;;;;;4.53;3.10;;;;;;;-144.47;100.00;61586.06;6182090;23;20052;-76
2022/04/12 01:32:41;;;;;;;3.80;2.58;;;;;;;-144.47;100.00;61586.06;6182552;23;20017;-76
2022/04/12 01:35:08;;;;;;;3.60;3.08;;;;;;;-144.47;100.00;61586.06;6181666;23;20009;-76
2022/04/12 01:37:33;;;;;;;4.10;2.55;;;;;;;-144.47;100.00;61586.06;6182152;23;20450;-76
2022/04/12 01:39:59;;;;;;;3.63;2.92;;;;;;;-144.47;100.00;61586.06;6181260;23;20008;-77
2022/04/12 01:42:24;;;;;;;5.90;2.97;;;;;;;-144.47;100.00;61586.06;6182135;23;20378;-76
2022/04/12 01:44:50;;;;;;;3.30;2.70;;;;;;;-144.47;100.00;61586.06;6181195;23;20013;-75
2022/04/12 01:47:17;;;;;;;3.20;2.60;;;;;;;-144.47;100.00;61586.06;6181256;23;20013;-76
2022/04/12 01:49:42;;;;;;;4.50;2.38;;;;;;;-144.47;100.00;61586.06;6181672;23;20041;-76
2022/04/12 01:52:10;;;;;;;4.35;3.00;;;;;;;-144.47;100.00;61586.06;6181410;23;20334;-76
2022/04/12 01:54:36;;;;;;;3.65;2.80;;;;;;;-144.47;100.00;61586.06;6181544;23;20013;-75
2022/04/12 01:57:02;;;;;;;5.30;2.92;;;;;;;-144.47;100.00;61586.06;6181538;23;20359;-75
2022/04/12 01:59:28;;;;;;;4.25;2.63;;;;;;;-144.47;100.00;61586.06;6181670;23;20016;-77
2022/04/12 02:01:53;;;;;;;4.53;2.90;;;;;;;-144.47;100.00;61586.06;6181274;23;20087;-75
2022/04/12 02:04:19;;;;;;;5.38;3.05;;;;;;;-144.47;100.00;61586.06;6181501;23;20504;-76
2022/04/12 02:06:44;;;;;;;4.05;2.70;;;;;;;-144.47;100.00;61586.06;6181627;23;20385;-76
2022/04/12 02:09:10;;;;;;;3.30;2.80;;;;;;;-144.47;100.00;61586.06;6181030;23;20045;-76
2022/04/12 02:11:35;;;;;;;5.30;3.35;;;;;;;-144.47;100.00;61586.06;6181536;23;20362;-76
2022/04/12 02:14:01;;;;;;;4.88;3.10;;;;;;;-144.47;100.00;61586.06;6181549;23;20028;-76
2022/04/12 02:16:26;;;;;;;6.82;3.58;;;;;;;-144.47;100.00;61586.06;6181005;23;20021;-77
2022/04/12 02:18:51;;;;;;;3.75;3.38;;;;;;;-144.47;100.00;61586.06;6181170;23;20024;-77
2022/04/12 02:21:17;;;;;;;4.35;3.03;;;;;;;-144.47;100.00;61586.06;6181460;23;20013;-77
2022/04/12 02:23:42;;;;;;;3.58;3.00;;;;;;;-144.47;100.00;61586.06;6181689;23;20009;-77
2022/04/12 02:26:08;;;;;;;3.03;2.75;;;;;;;-144.47;100.00;61586.06;6154554;23;20017;-76
2022/04/12 02:28:33;;;;;;;5.07;3.10;;;;;;;-144.47;100.00;61586.06;6181502;23;20009;-76
2022/04/12 02:30:59;;;;;;;2.90;2.53;;;;;;;-144.47;100.00;61586.06;6180849;23;20036;-76
2022/04/12 02:33:24;;;;;;;4.07;2.85;;;;;;;-144.47;100.00;61586.06;6180517;23;20044;-77
2022/04/12 02:35:50;;;;;;;4.38;3.30;;;;;;;-144.47;100.00;61586.06;6181353;23;20017;-75
2022/04/12 02:38:15;;;;;;;4.68;3.42;;;;;;;-144.47;100.00;61586.06;6181429;23;20338;-76
2022/04/12 02:40:41;;;;;;;5.68;3.03;;;;;;;-144.47;100.00;61586.06;6187056;23;20119;-77
2022/04/12 02:43:06;;;;;;;8.02;3.13;;;;;;;-144.47;100.00;61586.06;6181167;23;20095;-75
2022/04/12 02:45:32;;;;;;;3.88;2.83;;;;;;;-144.47;100.00;61586.06;6181804;23;20012;-76
2022/04/12 02:47:57;;;;;;;4.05;3.13;;;;;;;-144.47;100.00;61586.06;6154281;23;20019;-75
2022/04/12 02:50:22;;;;;;;3.85;3.10;;;;;;;-144.47;100.00;61586.06;6181336;23;20112;-75
2022/04/12 02:52:48;;;;;;;3.33;2.85;;;;;;;-144.47;100.00;61586.06;6181592;23;20455;-75
2022/04/12 02:55:14;;;;;;;3.20;2.78;;;;;;;-144.47;100.00;61586.06;6181259;23;20011;-76
2022/04/12 02:57:39;;;;;;;4.53;3.35;;;;;;;-144.47;100.00;61586.06;6181676;23;20060;-76
2022/04/12 03:00:06;;;;;;;4.63;2.80;;;;;;;-144.47;100.00;61586.06;6181283;23;20036;-77
2022/04/12 03:02:32;;;;;;;6.20;2.92;;;;;;;-144.47;100.00;61586.06;6181386;23;20068;-77
2022/04/12 03:04:57;;;;;;;3.03;2.72;;;;;;;-144.47;100.00;61586.06;6180609;23;20353;-77
2022/04/12 03:07:23;;;;;;;5.35;2.97;;;;;;;-144.47;100.00;61586.06;6181447;23;20080;-75
2022/04/12 03:09:49;;;;;;;4.90;3.25;;;;;;;-144.47;100.00;61586.06;6181501;23;20020;-77
2022/04/12 03:12:15;;;;;;;4.80;3.97;;;;;;;-144.47;100.00;61586.06;6181073;23;20017;-77
2022/04/12 03:14:40;;;;;;;6.00;4.03;;;;;;;-144.47;100.00;61586.06;6181779;23;20087;-76
2022/04/12 03:17:06;;;;;;;6.80;4.00;;;;;;;-144.47;100.00;61586.06;6154793;23;20060;-75
2022/04/12 03:19:32;;;;;;;5.35;3.70;;;;;;;-144.47;100.00;61586.06;6181331;23;20104;-76
2022/04/12 03:21:57;;;;;;;7.20;4.20;;;;;;;-144.47;100.00;61586.06;6181107;23;20036;-76
2022/04/12 03:24:22;;;;;;;5.82;3.75;;;;;;;-144.47;100.00;61586.06;6182037;23;20036;-77
2022/04/12 03:26:49;;;;;;;6.72;4.20;;;;;;;-144.47;100.00;61586.06;6182436;23;20009;-76
2022/04/12 03:29:15;;;;;;;8.45;4.40;;;;;;;-144.47;100.00;61586.06;6187546;23;20016;-78
2022/04/12 03:31:41;;;;;;;8.32;3.88;;;;;;;-144.47;100.00;61586.06;6159230;23;20012;-76
2022/04/12 03:34:06;;;;;;;6.15;4.00;;;;;;;-144.47;100.00;61586.06;6182636;23;20084;-76
2022/04/12 03:36:32;;;;;;;7.32;4.20;;;;;;;-144.47;100.00;61586.06;6184976;23;20069;-76
2022/04/12 03:38:58;;;;;;;6.63;3.88;;;;;;;-144.47;100.00;61586.06;6190069;23;20089;-76
2022/04/12 03:41:23;;;;;;;6.47;3.60;;;;;;;-144.47;100.00;61586.06;6191936;23;20001;-76
2022/04/12 03:43:50;;;;;;;5.18;4.15;;;;;;;-144.47;100.00;61586.06;6183998;23;20049;-77
2022/04/12 03:46:16;;;;;;;6.78;3.72;;;;;;;-144.47;100.00;61586.06;6157167;23;20334;-76
2022/04/12 03:48:41;;;;;;;6.45;4.28;;;;;;;-144.47;100.00;61586.06;6182945;23;20154;-76
2022/04/12 03:51:07;;;;;;;6.93;3.95;;;;;;;-144.47;100.00;61586.06;6182587;23;20013;-77
2022/04/12 03:53:32;;;;;;;6.38;3.42;;;;;;;-144.47;100.00;61586.06;6183340;23;20005;-76
2022/04/12 03:55:58;;;;;;;5.63;3.55;;;;;;;-144.47;100.00;61586.06;6183059;23;20454;-75
2022/04/12 03:58:23;;;;;;;4.43;3.65;;;;;;;-144.47;100.00;61586.06;6183569;23;20387;-76
2022/04/12 04:00:49;;;;;;;5.10;3.78;;;;;;;-144.47;100.00;61586.06;6183345;23;20080;-76
2022/04/12 04:03:17;;;;;;;11.40;3.78;;;;;;;-144.47;100.00;61586.06;6183232;23;20017;-76
2022/04/12 04:05:43;;;;;;;6.75;3.58;;;;;;;-144.47;100.00;61586.06;6182582;23;20009;-76
2022/04/12 04:08:09;;;;;;;6.32;3.58;;;;;;;-144.47;100.00;61586.06;6182799;23;20075;-75
2022/04/12 04:10:34;;;;;;;7.55;3.67;;;;;;;-144.47;100.00;61586.06;6183123;23;20045;-76
2022/04/12 04:13:01;;;;;;;4.13;3.50;;;;;;;-144.47;100.00;61586.06;6182520;23;20009;-76
2022/04/12 04:15:27;;;;;;;3.35;2.90;;;;;;;-144.47;100.00;61586.06;6183281;23;20021;-75
2022/04/12 04:17:52;;;;;;;3.75;3.05;;;;;;;-144.47;100.00;61586.06;6183097;23;20009;-76
2022/04/12 04:20:18;;;;;;;4.07;3.30;;;;;;;-144.47;100.00;61586.06;6182664;23;20009;-76
2022/04/12 04:22:45;;;;;;;4.40;3.40;;;;;;;-144.47;100.00;61586.06;6182976;23;20013;-76
2022/04/12 04:25:12;;;;;;;3.75;3.28;;;;;;;-144.47;100.00;61586.06;6157266;23;20021;-76
2022/04/12 04:27:39;;;;;;;4.18;3.78;;;;;;;-144.47;100.00;61586.06;6183651;23;20302;-75
2022/04/12 04:30:08;;;;;;;7.38;3.70;;;;;;;-144.47;100.00;61586.06;6156238;23;20009;-74
2022/04/12 04:32:34;;;;;;;4.10;3.28;;;;;;;-144.47;100.00;61586.06;6183180;23;20497;-75
2022/04/12 04:35:00;;;;;;;4.75;3.45;;;;;;;-144.47;100.00;61586.06;6182296;23;20016;-76
2022/04/12 04:37:25;;;;;;;5.15;3.50;;;;;;;-144.47;100.00;61586.06;6182468;23;20342;-75
2022/04/12 04:39:51;;;;;;;8.40;4.10;;;;;;;-144.47;100.00;61586.06;6182191;23;20040;-76
2022/04/12 04:42:17;;;;;;;5.30;3.90;;;;;;;-144.47;100.00;61586.06;6182836;23;20017;-76
2022/04/12 04:44:43;;;;;;;4.20;3.00;;;;;;;-144.47;100.00;61586.06;6182693;23;20013;-75
2022/04/12 04:47:08;;;;;;;3.47;3.05;;;;;;;-144.47;100.00;61586.06;6182612;23;20019;-75
2022/04/12 04:49:34;;;;;;;6.60;3.30;;;;;;;-144.47;100.00;61586.06;6182660;23;20430;-76
2022/04/12 04:51:59;;;;;;;3.83;2.70;;;;;;;-144.47;100.00;61586.06;6182230;23;20079;-76
2022/04/12 04:54:25;;;;;;;3.60;3.10;;;;;;;-144.47;100.00;61586.06;6182711;23;20016;-75
2022/04/12 04:56:51;;;;;;;7.22;3.40;;;;;;;-144.47;100.00;61586.06;6182717;23;20013;-74
2022/04/12 04:59:17;;;;;;;4.85;3.25;;;;;;;-144.47;100.00;61586.06;6182587;23;20509;-78
2022/04/12 05:01:42;;;;;;;5.55;3.60;;;;;;;-144.47;100.00;61586.06;6183677;23;20060;-83
2022/04/12 05:04:07;;;;;;;4.65;3.78;;;;;;;-144.47;100.00;61586.06;6182557;23;20037;-84
2022/04/12 05:06:33;;;;;;;5.60;3.38;;;;;;;-144.47;100.00;61586.06;6157120;23;20047;-82
2022/04/12 05:08:58;;;;;;;3.83;3.38;;;;;;;-144.47;100.00;61586.06;6155731;23;20374;-82
2022/04/12 05:11:24;;;;;;;4.07;3.28;;;;;;;-144.47;100.00;61586.06;6183199;23;20406;-82
2022/04/12 05:13:50;;;;;;;4.57;3.63;;;;;;;-144.47;100.00;61586.06;6184250;23;20092;-82
2022/04/12 05:16:15;;;;;;;5.35;3.28;;;;;;;-144.47;100.00;61586.06;6186884;23;20013;-82
2022/04/12 05:18:40;;;;;;;3.83;3.10;;;;;;;-144.47;100.00;61586.06;6160205;23;20016;-83
2022/04/12 05:21:06;;;;;;;6.30;3.00;;;;;;;-144.47;100.00;61586.06;6195059;23;20021;-84
2022/04/12 05:23:31;;;;;;;4.07;3.78;;;;;;;-144.47;100.00;61586.06;6184941;23;20023;-80
2022/04/12 05:25:57;;;;;;;4.05;3.42;;;;;;;-144.47;100.00;61586.06;6156065;23;20084;-82
2022/04/12 05:28:23;;;;;;;6.78;3.78;;;;;;;-144.47;100.00;61586.06;6184063;23;20395;-83
2022/04/12 05:30:48;;;;;;;4.65;3.42;;;;;;;-144.47;100.00;61586.06;6180911;23;20479;-84
2022/04/12 05:33:14;;;;;;;6.18;4.18;;;;;;;-144.47;100.00;61586.06;6179949;23;20019;-83
2022/04/12 05:35:40;;;;;;;6.32;3.90;;;;;;;-144.47;100.00;61586.06;6181664;23;20020;-83
2022/04/12 05:38:06;;;;;;;4.78;3.70;;;;;;;-144.47;100.00;61586.06;6154600;23;20001;-82
2022/04/12 05:40:34;;;;;;;4.63;3.90;;;;;;;-144.47;100.00;61586.06;6180285;23;20532;-84
2022/04/12 05:43:00;;;;;;;5.63;3.83;;;;;;;-144.47;100.00;61586.06;6179609;23;20009;-84
2022/04/12 05:45:25;;;;;;;6.65;3.70;;;;;;;-144.47;100.00;61586.06;6153872;23;20027;-84
2022/04/12 05:47:54;;;;;;;5.88;3.47;;;;;;;-144.47;100.00;61586.06;6179668;23;20048;-84
2022/04/12 05:50:22;;;;;;;4.55;3.03;;;;;;;-144.47;100.00;61586.06;6180691;23;20103;-84
2022/04/12 05:52:49;;;;;;;3.70;3.10;;;;;;;-144.47;100.00;61586.06;6153649;23;20453;-85
2022/04/12 05:55:17;;;;;;;12.73;3.35;;;;;;;-144.47;100.00;61586.06;6179536;23;20008;-83
2022/04/12 05:57:56;;;;;;;9.80;3.45;;;;;;;-144.47;100.00;61586.06;6181586;23;20017;-78
2022/04/12 06:00:23;;;;;;;4.28;3.83;;;;;;;-144.47;100.00;61586.06;6183084;23;20005;-85
2022/04/12 06:02:50;;;;;;;7.47;3.50;;;;;;;-144.47;100.00;61586.06;6183431;23;20465;-83
2022/04/12 06:05:17;;;;;;;8.18;4.15;;;;;;;-144.47;100.00;61586.06;6183176;23;20017;-84
2022/04/12 06:07:43;;;;;;;6.38;4.38;;;;;;;-144.47;100.00;61586.06;6183308;23;20009;-84
2022/04/12 06:10:13;;;;;;;6.68;4.25;;;;;;;-144.47;100.00;61586.06;6182412;23;20384;-84
2022/04/12 06:12:39;;;;;;;6.35;4.75;;;;;;;-144.47;100.00;61586.06;6182811;23;20308;-84
2022/04/12 06:15:05;;;;;;;8.98;4.60;;;;;;;-144.47;100.00;61586.06;6158067;23;20099;-83
2022/04/12 06:17:32;;;;;;;8.15;4.93;;;;;;;-144.47;100.00;61586.06;6183490;23;20013;-84
2022/04/12 06:20:00;;;;;;;13.63;5.07;;;;;;;-144.47;100.00;61586.06;6182903;23;20330;-83
2022/04/12 06:22:25;;;;;;;6.97;4.80;;;;;;;-144.47;100.00;61586.06;6183363;23;20437;-85
2022/04/12 06:24:50;;;;;;;8.70;4.70;;;;;;;-144.47;100.00;61586.06;6182695;23;20076;-84
2022/04/12 06:27:16;;;;;;;6.53;4.78;;;;;;;-144.47;100.00;61586.06;6182501;23;20016;-84
2022/04/12 06:29:41;;;;;;;10.07;5.43;;;;;;;-144.47;100.00;61586.06;6182526;23;20036;-83
2022/04/12 06:32:07;;;;;;;7.15;5.15;;;;;;;-144.47;100.00;61586.06;6183920;23;20009;-85
2022/04/12 06:34:33;;;;;;;7.90;4.85;;;;;;;-144.47;100.00;61586.06;6157278;23;20013;-83
2022/04/12 06:36:58;;;;;;;10.40;5.47;;;;;;;-144.47;100.00;61586.06;6183689;23;20037;-84
2022/04/12 06:39:24;;;;;;;8.93;5.32;;;;;;;-144.47;100.00;61586.06;6183128;23;20422;-83
2022/04/12 06:41:49;;;;;;;9.25;5.22;;;;;;;-144.47;100.00;61586.06;6183525;23;20031;-84
2022/04/12 06:44:16;;;;;;;7.82;5.25;;;;;;;-144.47;100.00;61586.06;6156725;23;20009;-84
2022/04/12 06:46:42;;;;;;;13.10;5.50;;;;;;;-144.47;100.00;61586.06;6183441;23;20427;-84
2022/04/12 06:49:07;;;;;;;8.77;5.18;;;;;;;-144.47;100.00;61586.06;6181371;23;20088;-83
2022/04/12 06:51:33;;;;;;;7.55;5.28;;;;;;;-144.47;100.00;61586.06;6183050;23;20438;-83
2022/04/12 06:53:58;;;;;;;8.45;6.18;;;;;;;-144.47;100.00;61586.06;6195167;23;20009;-83
2022/04/12 06:56:23;;;;;;;9.27;6.30;;;;;;;-144.47;100.00;61586.06;6202355;23;20012;-83
2022/04/12 06:58:49;;;;;;;11.20;6.03;;;;;;;-144.47;100.00;61586.06;6188744;23;20000;-83
2022/04/12 07:01:14;;;;;;;7.28;5.10;;;;;;;-144.47;100.00;61586.06;6183762;23;20351;-84
2022/04/12 07:03:40;;;;;;;11.25;5.40;;;;;;;-144.47;100.00;61586.06;6183494;23;20343;-84
2022/04/12 07:06:06;;;;;;;11.13;6.47;;;;;;;-144.47;100.00;61586.06;6184363;23;20005;-83
2022/04/12 07:08:32;;;;;;;10.80;6.07;;;;;;;-144.47;100.00;61586.06;6185300;23;20013;-83
2022/04/12 07:10:57;;;;;;;14.38;6.55;;;;;;;-144.47;100.00;61586.06;6162025;23;20028;-83
2022/04/12 07:13:23;;;;;;;11.52;5.95;;;;;;;-144.47;100.00;61586.06;6190265;23;20021;-83
2022/04/12 07:15:49;;;;;;;9.30;6.60;;;;;;;-144.47;100.00;61586.06;6197963;23;20013;-84
2022/04/12 07:18:16;;;;;;;12.50;7.13;;;;;;;-144.47;100.00;61586.06;6173070;23;20206;-84
2022/04/12 07:20:41;;;;;;;12.77;7.40;;;;;;;-144.47;100.00;61586.06;6201418;23;20039;-84
2022/04/12 07:23:07;;;;;;;11.73;6.78;;;;;;;-144.47;100.00;61586.06;6173691;23;20013;-83
2022/04/12 07:25:32;;;;;;;10.35;6.75;;;;;;;-144.47;100.00;61586.06;6193151;23;20088;-83
2022/04/12 07:27:58;;;;;;;13.07;7.13;;;;;;;-144.47;100.00;61586.06;6183031;23;20044;-83
2022/04/12 07:30:23;;;;;;;12.27;8.43;;;;;;;-144.47;100.00;61586.06;6183293;23;20001;-85
2022/04/12 07:32:49;;;;;;;11.05;6.60;;;;;;;-144.47;100.00;61586.06;6183267;23;20055;-83
2022/04/12 07:35:16;;;;;;;8.45;6.60;;;;;;;-144.47;100.00;61586.06;6183955;23;20009;-83
2022/04/12 07:37:43;;;;;;;12.88;7.32;;;;;;;-144.47;100.00;61586.06;6160999;23;20020;-83
2022/04/12 07:40:09;;;;;;;13.18;7.30;;;;;;;-144.47;100.00;61586.06;6187003;23;20020;-82
2022/04/12 07:42:34;;;;;;;8.05;6.70;;;;;;;-144.47;100.00;61586.06;6190058;23;20005;-84
2022/04/12 07:45:01;;;;;;;16.65;7.05;;;;;;;-144.47;100.00;61586.06;6194160;23;20009;-85
2022/04/12 07:47:26;;;;;;;8.07;5.70;;;;;;;-144.47;100.00;61586.06;6196716;23;20477;-84
2022/04/12 07:49:52;;;;;;;6.30;5.70;;;;;;;-144.47;100.00;61586.06;6188481;23;20379;-84
2022/04/12 07:52:17;;;;;;;9.05;5.95;;;;;;;-144.47;100.00;61586.06;6181496;23;20059;-84
2022/04/12 07:54:42;;;;;;;9.85;6.38;;;;;;;-144.47;100.00;61586.06;6181798;23;20013;-84
2022/04/12 07:57:08;;;;;;;7.38;5.10;;;;;;;-144.47;100.00;61586.06;6180992;23;20044;-83
2022/04/12 07:59:33;;;;;;;9.63;6.20;;;;;;;-144.47;100.00;61586.06;6182235;23;20009;-84
2022/04/12 08:01:59;;;;;;;10.00;5.97;;;;;;;-144.47;100.00;61586.06;6181472;23;20001;-85
2022/04/12 08:04:24;;;;;;;11.52;5.32;;;;;;;-144.47;100.00;61586.06;6182450;23;20013;-83
2022/04/12 08:06:50;;;;;;;10.45;5.22;;;;;;;-144.47;100.00;61586.06;6182216;23;20423;-84
2022/04/12 08:09:15;;;;;;;8.23;5.28;;;;;;;-144.47;100.00;61586.06;6182363;23;20338;-85
2022/04/12 08:11:41;;;;;;;30.50;9.50;;;;;;;-144.47;100.00;61586.06;6182010;23;20013;-84
2022/04/12 08:14:06;;;;;;;10.52;4.93;;;;;;;-144.47;100.00;61586.06;6181529;23;20035;-84
2022/04/12 08:16:32;;;;;;;8.10;4.63;;;;;;;-144.47;100.00;61586.06;6184010;23;20465;-85
2022/04/12 08:18:57;;;;;;;6.22;4.05;;;;;;;-144.47;100.00;61586.06;6183446;23;20072;-85
2022/04/12 08:21:39;;;;;;;6.35;3.67;;;;;;;-144.47;100.00;61586.06;6184830;23;20009;-85
2022/04/12 08:24:07;;;;;;;5.25;3.55;;;;;;;-144.47;100.00;61586.06;6157788;23;20478;-85
2022/04/12 08:26:32;;;;;;;4.53;3.22;;;;;;;-144.47;100.00;61586.06;6184821;23;20094;-86
2022/04/12 08:28:58;;;;;;;5.03;3.33;;;;;;;-144.47;100.00;61586.06;6183583;23;20489;-86
2022/04/12 08:31:24;;;;;;;6.57;3.20;;;;;;;-144.47;100.00;61586.06;6185522;23;20083;-82
2022/04/12 08:33:49;;;;;;;5.07;3.53;;;;;;;-144.47;100.00;61586.06;6183825;23;20043;-82
2022/04/12 08:36:16;;;;;;;5.03;3.38;;;;;;;-144.47;100.00;61586.06;6132204;23;20111;-82
2022/04/12 08:38:44;;;;;;;7.30;3.65;;;;;;;-144.47;100.00;61586.06;6183710;23;20021;-86
2022/04/12 08:41:11;;;;;;;5.40;3.50;;;;;;;-144.47;100.00;61586.06;6183697;23;20047;-83
2022/04/12 08:43:39;;;;;;;3.97;3.05;;;;;;;-144.47;100.00;61586.06;6192813;23;20020;-85
2022/04/12 08:46:06;;;;;;;3.55;2.75;;;;;;;-144.47;100.00;61586.06;6186661;23;20430;-83
2022/04/12 08:48:32;;;;;;;6.63;3.90;;;;;;;-144.47;100.00;61586.06;6190266;23;20024;-84
2022/04/12 08:50:58;;;;;;;5.05;3.40;;;;;;;-144.47;100.00;61586.06;6182330;23;20112;-84
2022/04/12 08:53:25;;;;;;;3.45;3.13;;;;;;;-144.47;100.00;61586.06;6182106;23;20000;-84
2022/04/12 08:55:50;;;;;;;4.40;3.20;;;;;;;-144.47;100.00;61586.06;6155450;23;20012;-84
2022/04/12 08:58:16;;;;;;;6.05;4.07;;;;;;;-144.47;100.00;61586.06;6182053;23;20410;-85
2022/04/12 09:00:42;;;;;;;4.93;3.47;;;;;;;-144.47;100.00;61586.06;6156190;23;20474;-84
2022/04/12 09:03:07;;;;;;;4.15;2.83;;;;;;;-144.47;100.00;61586.06;6181418;23;20017;-82
2022/04/12 09:05:33;;;;;;;7.22;3.20;;;;;;;-144.47;100.00;61586.06;6181906;23;20062;-81
2022/04/12 09:08:00;;;;;;;7.03;2.88;;;;;;;-144.47;100.00;61586.06;6183426;23;20044;-86
2022/04/12 09:10:36;;;;;;;5.32;2.97;;;;;;;-144.47;100.00;61586.06;6183706;23;20008;-85
2022/04/12 09:13:12;;;;;;;6.22;3.05;;;;;;;-144.47;100.00;61586.06;6186240;23;20013;-85
2022/04/12 09:15:46;;;;;;;3.45;2.63;;;;;;;-144.47;100.00;61586.06;6184274;23;20307;-84
2022/04/12 09:18:12;;;;;;;4.95;2.78;;;;;;;-144.47;100.00;61586.06;6183430;23;20016;-86
2022/04/12 09:20:38;;;;;;;5.03;2.72;;;;;;;-144.47;100.00;61586.06;6184249;23;20084;-86
2022/04/12 09:23:13;;;;;;;7.60;3.10;;;;;;;-144.47;100.00;61586.06;6182688;23;20093;-83
2022/04/12 09:25:52;;;;;;;4.30;3.22;;;;;;;-144.47;100.00;61586.06;6183586;23;20009;-83
2022/04/12 09:28:19;;;;;;;4.95;2.88;;;;;;;-144.47;100.00;61586.06;6182695;23;20016;-82
2022/04/12 09:30:45;;;;;;;4.90;3.33;;;;;;;-144.47;100.00;61586.06;6182825;23;20017;-83
2022/04/12 09:33:10;;;;;;;3.88;2.53;;;;;;;-144.47;100.00;61586.06;6181472;23;20035;-82
2022/04/12 09:35:37;;;;;;;5.65;3.03;;;;;;;-144.47;100.00;61586.06;6182634;23;20009;-84
2022/04/12 09:38:03;;;;;;;4.43;2.60;;;;;;;-144.47;100.00;61586.06;6182411;23;19997;-84
2022/04/12 09:40:28;;;;;;;5.20;2.35;;;;;;;-144.47;100.00;61586.06;6182589;23;20071;-85
2022/04/12 09:42:57;;;;;;;2.97;2.20;;;;;;;-144.47;100.00;61586.06;6182295;23;20312;-84
2022/04/12 09:45:27;;;;;;;4.55;2.45;;;;;;;-144.47;100.00;61586.06;6181938;23;20052;-84
2022/04/12 09:47:57;;;;;;;6.30;2.58;;;;;;;-144.47;100.00;61586.06;6183517;23;20147;-84
2022/04/12 09:50:25;;;;;;;2.03;1.75;;;;;;;-144.47;100.00;61586.06;6180000;23;20346;-84
2022/04/12 09:53:00;;;;;;;5.85;2.67;;;;;;;-144.47;100.00;61586.06;6182408;23;20089;-86
2022/04/12 09:55:44;;;;;;;7.82;2.05;;;;;;;-144.47;100.00;61586.06;6181039;23;20017;-85
2022/04/12 09:58:12;;;;;;;3.25;2.03;;;;;;;-144.47;100.00;61586.06;6180914;23;20019;-86
2022/04/12 10:00:39;;;;;;;5.00;1.95;;;;;;;-144.47;100.00;61586.06;6181683;23;20002;-84
2022/04/12 10:03:10;;;;;;;4.13;1.60;;;;;;;-144.47;100.00;61586.06;6180683;23;20017;-85
2022/04/12 10:05:36;;;;;;;2.42;1.50;;;;;;;-144.47;100.00;61586.06;6179912;23;20009;-85
2022/04/12 10:08:04;;;;;;;2.00;1.10;;;;;;;-144.47;100.00;61586.06;6180328;23;20064;-86
2022/04/12 10:10:30;;;;;;;1.60;1.30;;;;;;;-144.47;100.00;61586.06;6179235;23;20013;-85
2022/04/12 10:12:58;;;;;;;1.92;1.20;;;;;;;-144.47;100.00;61586.06;6176961;23;20079;-87
2022/04/12 10:15:25;;;;;;;1.45;1.15;;;;;;;-144.47;100.00;61586.06;6180743;23;20017;-85
2022/04/12 10:17:52;;;;;;;2.30;1.20;;;;;;;-144.47;100.00;61586.06;6181967;23;20036;-85
2022/04/12 10:20:19;;;;;;;4.32;1.70;;;;;;;-144.47;100.00;61586.06;6183800;23;20031;-85
2022/04/12 10:22:46;;;;;;;6.57;1.95;;;;;;;-144.47;100.00;61586.06;6183238;23;20025;-86
2022/04/12 10:25:15;;;;;;;1.95;1.67;;;;;;;-144.47;100.00;61586.06;6157894;23;20083;-84
2022/04/12 10:27:41;;;;;;;5.55;1.15;;;;;;;-144.47;100.00;61586.06;6182454;23;20024;-84
2022/04/12 10:30:20;;;;;;;1.63;1.52;;;;;;;-144.47;100.00;61586.06;6198462;23;20013;-85
2022/04/12 10:33:06;;;;;;;2.78;1.73;;;;;;;-144.47;100.00;61586.06;6196956;23;20071;-85
2022/04/12 10:35:55;;;;;;;3.72;1.52;;;;;;;-144.47;100.00;61586.06;6195327;23;20009;-86
2022/04/12 10:38:25;;;;;;;3.58;1.67;;;;;;;-144.47;100.00;61586.06;6183704;23;20041;-85
2022/04/12 10:40:52;;;;;;;;;;;;;;;-144.47;100.00;61586.06;6183647;23;20036;-86
2022/04/12 10:43:33;;;;;;;2.17;1.50;;;;;;;-144.47;100.00;61586.06;6185081;23;19916;-85
2022/04/12 10:46:04;;;;;;;4.15;1.50;;;;;;;-144.47;100.00;61586.06;6195101;23;20087;-87
2022/04/12 10:48:30;;;;;;;3.67;1.60;;;;;;;-144.47;100.00;61586.06;6193947;23;20024;-85
2022/04/12 10:50:59;;;;;;;3.03;1.38;;;;;;;-144.47;100.00;61586.06;6171471;23;20065;-85
2022/04/12 10:53:36;;;;;;;1.73;1.45;;;;;;;-144.47;100.00;61586.06;6193487;23;20138;-85
2022/04/12 10:56:10;;;;;;;4.53;1.60;;;;;;;-144.47;100.00;61586.06;6186817;23;20012;-86
2022/04/12 10:58:37;;;;;;;4.38;2.03;;;;;;;-144.47;100.00;61586.06;6185182;23;20048;-86
2022/04/12 11:01:04;;;;;;;2.40;1.02;;;;;;;-144.47;100.00;61586.06;6182696;23;20009;-87
2022/04/12 11:03:46;;;;;;;3.22;1.27;;;;;;;-144.47;100.00;61586.06;6181173;23;20044;-88
2022/04/12 11:06:14;;;;;;;2.50;1.10;;;;;;;-144.47;100.00;61586.06;6182423;23;20016;-89
2022/04/12 11:08:47;;;;;;;2.38;1.42;;;;;;;-144.47;100.00;61586.06;6155998;23;20040;-86
2022/04/12 11:11:18;;;;;;;2.75;1.20;;;;;;;-144.47;100.00;61586.06;6154964;23;20025;-85